Terminal Aerodrome Forecast
Issued by NWS

Home | Current Version | Previous Version | Text Only | Print | Product List | Glossary On
Versions: 1 2 3 4 5 6 7 8 9 10 11 12 13 14 15 16 17 18
360
FTUS43 KAPX 282320
TAFTVC
TAF
KTVC 282320Z 2900/2924 04010G18KT P6SM BKN100
     FM290100 03009KT P6SM BKN100
     FM291400 05009KT P6SM FEW250
     FM291800 05013G22KT P6SM FEW120=

USA.gov is the U.S. government's official web portal to all federal, state and local government web resources and services.